Kawasaki, Japan
Current Conditions -  °F | °C
As of 3:00 AM on Friday 28 Nov 2014 (Local Time) from RJTT Reporting Station
Broken Clouds Broken Clouds  
Wind Chill: 55°   Ceiling: 5000
Heat Index: 55°   Visibility: 6mi
Dew Point: 52°   Wind: 2mph
Humidity: 88%   Direction: NA
Pressure: 30.24"   Gusts: NA
Location:  35.53°N, 139.7°E
Report Text: RJTT 271800Z VRB02KT 9999 FEW020 BKN050 13/11 Q1024 BECMG 12005KT
Loading
Personal Weather Stations






























Interactive Weather Map New forecast layout! Learn more

10-Day Weather Forecast

Advertisements
Track Severe Weather on mobile